sensor_id;sensor_type;location;lat;lon;timestamp;P1;durP1;ratioP1;P2;durP2;ratioP2
20697;SDS011;10508;50.956;4.640;2024-02-16T00:00:11;2.72;;;1.55;;
20697;SDS011;10508;50.956;4.640;2024-02-16T00:02:37;3.70;;;1.58;;
20697;SDS011;10508;50.956;4.640;2024-02-16T00:05:04;4.60;;;1.67;;
20697;SDS011;10508;50.956;4.640;2024-02-16T00:07:31;4.65;;;2.00;;
20697;SDS011;10508;50.956;4.640;2024-02-16T00:09:57;4.25;;;1.80;;
20697;SDS011;10508;50.956;4.640;2024-02-16T00:12:23;3.92;;;1.90;;
20697;SDS011;10508;50.956;4.640;2024-02-16T00:14:49;3.95;;;1.95;;
20697;SDS011;10508;50.956;4.640;2024-02-16T00:17:15;5.00;;;2.05;;
20697;SDS011;10508;50.956;4.640;2024-02-16T00:19:42;7.85;;;2.15;;
20697;SDS011;10508;50.956;4.640;2024-02-16T00:22:08;4.75;;;1.83;;
20697;SDS011;10508;50.956;4.640;2024-02-16T00:24:34;3.08;;;1.90;;
20697;SDS011;10508;50.956;4.640;2024-02-16T00:27:02;3.88;;;2.10;;
20697;SDS011;10508;50.956;4.640;2024-02-16T00:32:16;5.85;;;1.92;;
20697;SDS011;10508;50.956;4.640;2024-02-16T00:34:43;7.78;;;2.08;;
20697;SDS011;10508;50.956;4.640;2024-02-16T00:37:09;6.43;;;2.33;;
20697;SDS011;10508;50.956;4.640;2024-02-16T00:39:37;5.07;;;2.17;;
20697;SDS011;10508;50.956;4.640;2024-02-16T00:42:48;4.38;;;2.00;;
20697;SDS011;10508;50.956;4.640;2024-02-16T00:45:20;7.28;;;2.22;;
20697;SDS011;10508;50.956;4.640;2024-02-16T00:48:08;5.03;;;2.25;;
20697;SDS011;10508;50.956;4.640;2024-02-16T00:50:56;3.95;;;1.60;;
20697;SDS011;10508;50.956;4.640;2024-02-16T00:53:59;3.00;;;1.73;;
20697;SDS011;10508;50.956;4.640;2024-02-16T00:56:32;4.57;;;1.88;;
20697;SDS011;10508;50.956;4.640;2024-02-16T00:58:58;4.60;;;1.90;;
20697;SDS011;10508;50.956;4.640;2024-02-16T01:01:24;4.63;;;1.92;;
20697;SDS011;10508;50.956;4.640;2024-02-16T01:06:55;5.63;;;2.40;;
20697;SDS011;10508;50.956;4.640;2024-02-16T01:09:21;3.08;;;1.70;;
20697;SDS011;10508;50.956;4.640;2024-02-16T01:11:47;4.28;;;2.03;;
20697;SDS011;10508;50.956;4.640;2024-02-16T01:14:13;5.13;;;1.65;;
20697;SDS011;10508;50.956;4.640;2024-02-16T01:16:40;4.32;;;1.77;;
20697;SDS011;10508;50.956;4.640;2024-02-16T01:19:06;5.43;;;1.77;;
20697;SDS011;10508;50.956;4.640;2024-02-16T01:21:32;4.95;;;1.83;;
20697;SDS011;10508;50.956;4.640;2024-02-16T01:26:43;3.65;;;1.80;;
20697;SDS011;10508;50.956;4.640;2024-02-16T01:29:09;4.82;;;1.85;;
20697;SDS011;10508;50.956;4.640;2024-02-16T01:31:36;4.22;;;1.92;;
20697;SDS011;10508;50.956;4.640;2024-02-16T01:34:02;7.50;;;1.98;;
20697;SDS011;10508;50.956;4.640;2024-02-16T01:36:28;2.90;;;1.60;;
20697;SDS011;10508;50.956;4.640;2024-02-16T01:38:54;4.18;;;2.00;;
20697;SDS011;10508;50.956;4.640;2024-02-16T01:41:20;3.45;;;1.65;;
20697;SDS011;10508;50.956;4.640;2024-02-16T01:43:46;7.05;;;1.92;;
20697;SDS011;10508;50.956;4.640;2024-02-16T01:46:12;6.30;;;1.70;;
20697;SDS011;10508;50.956;4.640;2024-02-16T01:48:39;5.40;;;2.40;;
20697;SDS011;10508;50.956;4.640;2024-02-16T01:51:23;4.20;;;2.17;;
20697;SDS011;10508;50.956;4.640;2024-02-16T01:53:51;4.57;;;2.13;;
20697;SDS011;10508;50.956;4.640;2024-02-16T01:56:19;5.55;;;2.05;;
20697;SDS011;10508;50.956;4.640;2024-02-16T02:01:31;3.88;;;2.00;;
20697;SDS011;10508;50.956;4.640;2024-02-16T02:03:57;4.85;;;2.30;;
20697;SDS011;10508;50.956;4.640;2024-02-16T02:06:24;5.00;;;2.63;;
20697;SDS011;10508;50.956;4.640;2024-02-16T02:08:50;7.43;;;2.28;;
20697;SDS011;10508;50.956;4.640;2024-02-16T02:11:16;3.38;;;1.77;;
20697;SDS011;10508;50.956;4.640;2024-02-16T02:13:42;5.13;;;2.33;;
20697;SDS011;10508;50.956;4.640;2024-02-16T02:16:09;6.57;;;2.45;;
20697;SDS011;10508;50.956;4.640;2024-02-16T02:18:36;8.82;;;2.53;;
20697;SDS011;10508;50.956;4.640;2024-02-16T02:21:02;4.20;;;1.92;;
20697;SDS011;10508;50.956;4.640;2024-02-16T02:23:28;5.82;;;1.88;;
20697;SDS011;10508;50.956;4.640;2024-02-16T02:25:54;3.35;;;2.10;;
20697;SDS011;10508;50.956;4.640;2024-02-16T02:28:39;8.02;;;1.90;;
20697;SDS011;10508;50.956;4.640;2024-02-16T02:31:05;3.63;;;2.03;;
20697;SDS011;10508;50.956;4.640;2024-02-16T02:33:34;5.75;;;2.20;;
20697;SDS011;10508;50.956;4.640;2024-02-16T02:36:00;6.65;;;2.00;;
20697;SDS011;10508;50.956;4.640;2024-02-16T02:38:28;6.80;;;2.15;;
20697;SDS011;10508;50.956;4.640;2024-02-16T02:41:13;4.53;;;2.00;;
20697;SDS011;10508;50.956;4.640;2024-02-16T02:43:41;4.82;;;2.30;;
20697;SDS011;10508;50.956;4.640;2024-02-16T02:46:07;6.35;;;2.15;;
20697;SDS011;10508;50.956;4.640;2024-02-16T02:48:33;4.25;;;1.92;;
20697;SDS011;10508;50.956;4.640;2024-02-16T02:51:18;4.20;;;1.95;;
20697;SDS011;10508;50.956;4.640;2024-02-16T02:53:44;5.80;;;2.40;;
20697;SDS011;10508;50.956;4.640;2024-02-16T02:56:11;3.78;;;1.83;;
20697;SDS011;10508;50.956;4.640;2024-02-16T02:58:39;4.38;;;1.95;;
20697;SDS011;10508;50.956;4.640;2024-02-16T03:01:05;3.78;;;1.90;;
20697;SDS011;10508;50.956;4.640;2024-02-16T03:03:33;6.43;;;2.60;;
20697;SDS011;10508;50.956;4.640;2024-02-16T03:05:59;4.45;;;2.00;;
20697;SDS011;10508;50.956;4.640;2024-02-16T03:08:25;5.90;;;2.08;;
20697;SDS011;10508;50.956;4.640;2024-02-16T03:13:36;5.10;;;2.17;;
20697;SDS011;10508;50.956;4.640;2024-02-16T03:16:03;5.50;;;2.13;;
20697;SDS011;10508;50.956;4.640;2024-02-16T03:18:33;5.70;;;2.25;;
20697;SDS011;10508;50.956;4.640;2024-02-16T03:23:46;4.25;;;1.90;;
20697;SDS011;10508;50.956;4.640;2024-02-16T03:26:16;7.80;;;2.38;;
20697;SDS011;10508;50.956;4.640;2024-02-16T03:28:45;4.72;;;2.15;;
20697;SDS011;10508;50.956;4.640;2024-02-16T03:31:22;6.10;;;2.58;;
20697;SDS011;10508;50.956;4.640;2024-02-16T03:33:49;5.45;;;1.92;;
20697;SDS011;10508;50.956;4.640;2024-02-16T03:36:16;3.88;;;2.22;;
20697;SDS011;10508;50.956;4.640;2024-02-16T03:38:43;4.63;;;2.03;;
20697;SDS011;10508;50.956;4.640;2024-02-16T03:41:28;3.58;;;1.80;;
20697;SDS011;10508;50.956;4.640;2024-02-16T03:43:54;4.80;;;2.05;;
20697;SDS011;10508;50.956;4.640;2024-02-16T03:46:22;6.25;;;2.00;;
20697;SDS011;10508;50.956;4.640;2024-02-16T03:48:48;8.32;;;2.47;;
20697;SDS011;10508;50.956;4.640;2024-02-16T03:51:14;6.57;;;1.90;;
20697;SDS011;10508;50.956;4.640;2024-02-16T03:53:40;3.15;;;2.03;;
20697;SDS011;10508;50.956;4.640;2024-02-16T03:56:06;3.90;;;1.98;;
20697;SDS011;10508;50.956;4.640;2024-02-16T04:01:36;7.13;;;2.85;;
20697;SDS011;10508;50.956;4.640;2024-02-16T04:04:02;5.78;;;2.17;;
20697;SDS011;10508;50.956;4.640;2024-02-16T04:06:28;5.82;;;1.77;;
20697;SDS011;10508;50.956;4.640;2024-02-16T04:08:55;6.65;;;2.28;;
20697;SDS011;10508;50.956;4.640;2024-02-16T04:11:21;7.00;;;2.30;;
20697;SDS011;10508;50.956;4.640;2024-02-16T04:13:48;5.13;;;2.08;;
20697;SDS011;10508;50.956;4.640;2024-02-16T04:16:14;6.38;;;2.65;;
20697;SDS011;10508;50.956;4.640;2024-02-16T04:18:40;9.18;;;2.65;;
20697;SDS011;10508;50.956;4.640;2024-02-16T04:21:06;5.25;;;2.28;;
20697;SDS011;10508;50.956;4.640;2024-02-16T04:23:32;6.25;;;2.80;;
20697;SDS011;10508;50.956;4.640;2024-02-16T04:25:59;4.80;;;2.38;;
20697;SDS011;10508;50.956;4.640;2024-02-16T04:28:43;5.00;;;2.10;;
20697;SDS011;10508;50.956;4.640;2024-02-16T04:31:19;5.55;;;2.50;;
20697;SDS011;10508;50.956;4.640;2024-02-16T04:33:45;9.48;;;3.58;;
20697;SDS011;10508;50.956;4.640;2024-02-16T04:36:11;3.90;;;2.03;;
20697;SDS011;10508;50.956;4.640;2024-02-16T04:38:37;7.28;;;2.42;;
20697;SDS011;10508;50.956;4.640;2024-02-16T04:43:48;6.43;;;2.17;;
20697;SDS011;10508;50.956;4.640;2024-02-16T04:46:17;3.33;;;2.05;;
20697;SDS011;10508;50.956;4.640;2024-02-16T04:48:43;3.58;;;2.05;;
20697;SDS011;10508;50.956;4.640;2024-02-16T04:51:12;4.75;;;2.40;;
20697;SDS011;10508;50.956;4.640;2024-02-16T04:53:38;6.35;;;2.20;;
20697;SDS011;10508;50.956;4.640;2024-02-16T04:56:23;5.13;;;2.33;;
20697;SDS011;10508;50.956;4.640;2024-02-16T04:58:49;4.45;;;2.13;;
20697;SDS011;10508;50.956;4.640;2024-02-16T05:01:15;4.40;;;2.25;;
20697;SDS011;10508;50.956;4.640;2024-02-16T05:03:41;4.72;;;2.42;;
20697;SDS011;10508;50.956;4.640;2024-02-16T05:06:07;5.88;;;2.03;;
20697;SDS011;10508;50.956;4.640;2024-02-16T05:08:33;5.18;;;2.20;;
20697;SDS011;10508;50.956;4.640;2024-02-16T05:11:00;4.50;;;1.90;;
20697;SDS011;10508;50.956;4.640;2024-02-16T05:13:27;6.45;;;2.20;;
20697;SDS011;10508;50.956;4.640;2024-02-16T05:15:53;6.82;;;2.22;;
20697;SDS011;10508;50.956;4.640;2024-02-16T05:18:21;5.68;;;2.70;;
20697;SDS011;10508;50.956;4.640;2024-02-16T05:20:47;14.45;;;2.63;;
20697;SDS011;10508;50.956;4.640;2024-02-16T05:23:31;6.28;;;2.38;;
20697;SDS011;10508;50.956;4.640;2024-02-16T05:25:57;5.97;;;2.67;;
20697;SDS011;10508;50.956;4.640;2024-02-16T05:28:23;8.90;;;2.55;;
20697;SDS011;10508;50.956;4.640;2024-02-16T05:30:49;9.60;;;2.08;;
20697;SDS011;10508;50.956;4.640;2024-02-16T05:33:14;10.75;;;2.40;;
20697;SDS011;10508;50.956;4.640;2024-02-16T05:35:40;6.18;;;2.20;;
20697;SDS011;10508;50.956;4.640;2024-02-16T05:38:24;5.20;;;2.10;;
20697;SDS011;10508;50.956;4.640;2024-02-16T05:41:05;6.18;;;2.05;;
20697;SDS011;10508;50.956;4.640;2024-02-16T05:43:50;11.95;;;2.40;;
20697;SDS011;10508;50.956;4.640;2024-02-16T05:49:38;4.75;;;2.00;;
20697;SDS011;10508;50.956;4.640;2024-02-16T05:52:04;6.72;;;2.50;;
20697;SDS011;10508;50.956;4.640;2024-02-16T05:54:49;11.60;;;2.95;;
20697;SDS011;10508;50.956;4.640;2024-02-16T05:57:15;7.15;;;2.30;;
20697;SDS011;10508;50.956;4.640;2024-02-16T06:02:29;4.22;;;2.30;;
20697;SDS011;10508;50.956;4.640;2024-02-16T06:05:13;8.32;;;2.30;;
20697;SDS011;10508;50.956;4.640;2024-02-16T06:07:39;3.95;;;2.30;;
20697;SDS011;10508;50.956;4.640;2024-02-16T06:10:23;4.25;;;2.58;;
20697;SDS011;10508;50.956;4.640;2024-02-16T06:12:49;5.45;;;2.40;;
20697;SDS011;10508;50.956;4.640;2024-02-16T06:15:15;11.68;;;2.92;;
20697;SDS011;10508;50.956;4.640;2024-02-16T06:17:41;5.53;;;2.13;;
20697;SDS011;10508;50.956;4.640;2024-02-16T06:20:07;8.32;;;2.90;;
20697;SDS011;10508;50.956;4.640;2024-02-16T06:22:35;9.95;;;2.63;;
20697;SDS011;10508;50.956;4.640;2024-02-16T06:25:02;6.50;;;2.38;;
20697;SDS011;10508;50.956;4.640;2024-02-16T06:27:28;9.15;;;2.60;;
20697;SDS011;10508;50.956;4.640;2024-02-16T06:29:53;7.47;;;2.30;;
20697;SDS011;10508;50.956;4.640;2024-02-16T06:32:19;6.95;;;2.53;;
20697;SDS011;10508;50.956;4.640;2024-02-16T06:34:45;7.47;;;2.75;;
20697;SDS011;10508;50.956;4.640;2024-02-16T06:37:11;6.65;;;2.38;;
20697;SDS011;10508;50.956;4.640;2024-02-16T06:39:36;9.00;;;2.85;;
20697;SDS011;10508;50.956;4.640;2024-02-16T06:42:02;4.88;;;2.50;;
20697;SDS011;10508;50.956;4.640;2024-02-16T06:44:28;3.97;;;2.22;;
20697;SDS011;10508;50.956;4.640;2024-02-16T06:47:12;5.28;;;2.35;;
20697;SDS011;10508;50.956;4.640;2024-02-16T06:49:57;8.43;;;2.42;;
20697;SDS011;10508;50.956;4.640;2024-02-16T06:52:41;5.93;;;2.67;;
20697;SDS011;10508;50.956;4.640;2024-02-16T06:55:07;5.85;;;2.33;;
20697;SDS011;10508;50.956;4.640;2024-02-16T06:57:33;10.30;;;2.70;;
20697;SDS011;10508;50.956;4.640;2024-02-16T06:59:59;7.28;;;3.53;;
20697;SDS011;10508;50.956;4.640;2024-02-16T07:02:24;8.20;;;2.40;;
20697;SDS011;10508;50.956;4.640;2024-02-16T07:04:50;12.88;;;3.03;;
20697;SDS011;10508;50.956;4.640;2024-02-16T07:07:34;7.53;;;2.97;;
20697;SDS011;10508;50.956;4.640;2024-02-16T07:10:01;10.32;;;2.97;;
20697;SDS011;10508;50.956;4.640;2024-02-16T07:12:27;9.35;;;2.75;;
20697;SDS011;10508;50.956;4.640;2024-02-16T07:14:53;5.32;;;2.58;;
20697;SDS011;10508;50.956;4.640;2024-02-16T07:17:37;4.07;;;2.42;;
20697;SDS011;10508;50.956;4.640;2024-02-16T07:20:03;12.07;;;2.67;;
20697;SDS011;10508;50.956;4.640;2024-02-16T07:22:48;7.22;;;2.30;;
20697;SDS011;10508;50.956;4.640;2024-02-16T07:25:16;11.65;;;3.20;;
20697;SDS011;10508;50.956;4.640;2024-02-16T07:27:42;8.38;;;2.80;;
20697;SDS011;10508;50.956;4.640;2024-02-16T07:30:08;6.25;;;3.00;;
20697;SDS011;10508;50.956;4.640;2024-02-16T07:32:53;7.45;;;3.00;;
20697;SDS011;10508;50.956;4.640;2024-02-16T07:35:19;9.43;;;3.05;;
20697;SDS011;10508;50.956;4.640;2024-02-16T07:37:46;6.47;;;2.55;;
20697;SDS011;10508;50.956;4.640;2024-02-16T07:40:13;8.18;;;2.97;;
20697;SDS011;10508;50.956;4.640;2024-02-16T07:42:39;9.75;;;3.35;;
20697;SDS011;10508;50.956;4.640;2024-02-16T07:48:14;11.48;;;2.72;;
20697;SDS011;10508;50.956;4.640;2024-02-16T07:53:43;5.97;;;2.50;;
20697;SDS011;10508;50.956;4.640;2024-02-16T07:56:11;6.10;;;2.83;;
20697;SDS011;10508;50.956;4.640;2024-02-16T07:58:37;5.38;;;2.55;;
20697;SDS011;10508;50.956;4.640;2024-02-16T08:01:03;7.72;;;2.67;;
20697;SDS011;10508;50.956;4.640;2024-02-16T08:08:58;6.47;;;2.70;;
20697;SDS011;10508;50.956;4.640;2024-02-16T08:14:30;13.30;;;4.05;;
20697;SDS011;10508;50.956;4.640;2024-02-16T08:16:57;8.23;;;2.58;;
20697;SDS011;10508;50.956;4.640;2024-02-16T08:19:23;15.25;;;3.85;;
20697;SDS011;10508;50.956;4.640;2024-02-16T08:21:56;12.27;;;3.13;;
20697;SDS011;10508;50.956;4.640;2024-02-16T08:24:40;11.07;;;3.00;;
20697;SDS011;10508;50.956;4.640;2024-02-16T08:27:06;22.23;;;4.50;;
20697;SDS011;10508;50.956;4.640;2024-02-16T08:29:32;8.45;;;3.38;;
20697;SDS011;10508;50.956;4.640;2024-02-16T08:31:57;13.05;;;3.25;;
20697;SDS011;10508;50.956;4.640;2024-02-16T08:34:23;6.57;;;3.15;;
20697;SDS011;10508;50.956;4.640;2024-02-16T08:36:51;5.75;;;2.40;;
20697;SDS011;10508;50.956;4.640;2024-02-16T08:39:17;6.97;;;3.35;;
20697;SDS011;10508;50.956;4.640;2024-02-16T08:41:45;10.38;;;3.67;;
20697;SDS011;10508;50.956;4.640;2024-02-16T08:44:13;12.48;;;3.25;;
20697;SDS011;10508;50.956;4.640;2024-02-16T08:46:39;8.93;;;3.53;;
20697;SDS011;10508;50.956;4.640;2024-02-16T08:49:05;11.15;;;3.75;;
20697;SDS011;10508;50.956;4.640;2024-02-16T08:51:32;7.72;;;2.65;;
20697;SDS011;10508;50.956;4.640;2024-02-16T08:53:58;10.35;;;3.55;;
20697;SDS011;10508;50.956;4.640;2024-02-16T08:56:25;10.88;;;3.70;;
20697;SDS011;10508;50.956;4.640;2024-02-16T08:58:51;10.63;;;3.30;;
20697;SDS011;10508;50.956;4.640;2024-02-16T09:01:16;6.28;;;3.10;;
20697;SDS011;10508;50.956;4.640;2024-02-16T09:03:42;11.73;;;3.88;;
20697;SDS011;10508;50.956;4.640;2024-02-16T09:06:08;10.75;;;3.83;;
20697;SDS011;10508;50.956;4.640;2024-02-16T09:08:34;10.30;;;3.67;;
20697;SDS011;10508;50.956;4.640;2024-02-16T09:11:03;9.25;;;3.58;;
20697;SDS011;10508;50.956;4.640;2024-02-16T09:13:39;7.40;;;3.53;;
20697;SDS011;10508;50.956;4.640;2024-02-16T09:16:05;13.38;;;3.88;;
20697;SDS011;10508;50.956;4.640;2024-02-16T09:18:32;7.40;;;3.50;;
20697;SDS011;10508;50.956;4.640;2024-02-16T09:20:58;12.35;;;3.50;;
20697;SDS011;10508;50.956;4.640;2024-02-16T09:23:25;15.57;;;4.18;;
20697;SDS011;10508;50.956;4.640;2024-02-16T09:25:51;8.65;;;3.45;;
20697;SDS011;10508;50.956;4.640;2024-02-16T09:28:17;12.02;;;4.20;;
20697;SDS011;10508;50.956;4.640;2024-02-16T09:30:44;16.30;;;4.03;;
20697;SDS011;10508;50.956;4.640;2024-02-16T09:33:10;18.17;;;7.95;;
20697;SDS011;10508;50.956;4.640;2024-02-16T09:35:36;9.65;;;4.30;;
20697;SDS011;10508;50.956;4.640;2024-02-16T09:38:02;10.32;;;4.22;;
20697;SDS011;10508;50.956;4.640;2024-02-16T09:40:28;12.27;;;3.20;;
20697;SDS011;10508;50.956;4.640;2024-02-16T09:42:54;8.63;;;3.80;;
20697;SDS011;10508;50.956;4.640;2024-02-16T09:45:20;10.43;;;4.15;;
20697;SDS011;10508;50.956;4.640;2024-02-16T09:47:47;15.00;;;4.35;;
20697;SDS011;10508;50.956;4.640;2024-02-16T09:50:14;17.70;;;4.00;;
20697;SDS011;10508;50.956;4.640;2024-02-16T09:52:41;16.33;;;4.82;;
20697;SDS011;10508;50.956;4.640;2024-02-16T09:55:12;10.60;;;4.18;;
20697;SDS011;10508;50.956;4.640;2024-02-16T09:57:38;11.02;;;4.43;;
20697;SDS011;10508;50.956;4.640;2024-02-16T10:00:04;11.07;;;4.30;;
20697;SDS011;10508;50.956;4.640;2024-02-16T10:02:43;9.77;;;4.05;;
20697;SDS011;10508;50.956;4.640;2024-02-16T10:05:24;11.75;;;3.55;;
20697;SDS011;10508;50.956;4.640;2024-02-16T10:07:50;13.27;;;4.97;;
20697;SDS011;10508;50.956;4.640;2024-02-16T10:10:21;14.02;;;4.55;;
20697;SDS011;10508;50.956;4.640;2024-02-16T10:13:06;8.80;;;3.88;;
20697;SDS011;10508;50.956;4.640;2024-02-16T10:15:33;18.98;;;5.10;;
20697;SDS011;10508;50.956;4.640;2024-02-16T10:18:06;12.55;;;5.03;;
20697;SDS011;10508;50.956;4.640;2024-02-16T10:20:33;14.93;;;5.18;;
20697;SDS011;10508;50.956;4.640;2024-02-16T10:25:35;14.32;;;5.20;;
20697;SDS011;10508;50.956;4.640;2024-02-16T10:28:06;14.95;;;5.38;;
20697;SDS011;10508;50.956;4.640;2024-02-16T10:30:52;15.05;;;4.75;;
20697;SDS011;10508;50.956;4.640;2024-02-16T10:33:22;16.20;;;5.10;;
20697;SDS011;10508;50.956;4.640;2024-02-16T10:35:49;14.10;;;5.05;;
20697;SDS011;10508;50.956;4.640;2024-02-16T10:38:16;13.80;;;4.70;;
20697;SDS011;10508;50.956;4.640;2024-02-16T10:40:44;14.10;;;4.75;;
20697;SDS011;10508;50.956;4.640;2024-02-16T10:43:13;11.25;;;4.13;;
20697;SDS011;10508;50.956;4.640;2024-02-16T10:45:40;9.45;;;4.07;;
20697;SDS011;10508;50.956;4.640;2024-02-16T10:48:06;20.35;;;6.07;;
20697;SDS011;10508;50.956;4.640;2024-02-16T10:50:33;18.45;;;5.65;;
20697;SDS011;10508;50.956;4.640;2024-02-16T10:53:42;14.95;;;5.15;;
20697;SDS011;10508;50.956;4.640;2024-02-16T10:55:51;16.00;;;5.47;;
20697;SDS011;10508;50.956;4.640;2024-02-16T10:58:17;13.15;;;5.82;;
20697;SDS011;10508;50.956;4.640;2024-02-16T11:00:51;15.25;;;5.65;;
20697;SDS011;10508;50.956;4.640;2024-02-16T11:03:22;15.05;;;5.10;;
20697;SDS011;10508;50.956;4.640;2024-02-16T11:05:49;18.45;;;6.57;;
20697;SDS011;10508;50.956;4.640;2024-02-16T11:08:15;13.68;;;5.97;;
20697;SDS011;10508;50.956;4.640;2024-02-16T11:10:58;16.58;;;5.47;;
20697;SDS011;10508;50.956;4.640;2024-02-16T11:13:24;18.45;;;5.70;;
20697;SDS011;10508;50.956;4.640;2024-02-16T11:15:58;21.27;;;5.72;;
20697;SDS011;10508;50.956;4.640;2024-02-16T11:18:26;10.75;;;4.97;;
20697;SDS011;10508;50.956;4.640;2024-02-16T11:20:53;18.15;;;6.32;;
20697;SDS011;10508;50.956;4.640;2024-02-16T11:23:24;15.77;;;5.82;;
20697;SDS011;10508;50.956;4.640;2024-02-16T11:25:53;19.90;;;5.50;;
20697;SDS011;10508;50.956;4.640;2024-02-16T11:28:19;25.67;;;6.57;;
20697;SDS011;10508;50.956;4.640;2024-02-16T11:30:46;15.93;;;5.53;;
20697;SDS011;10508;50.956;4.640;2024-02-16T11:33:11;13.75;;;5.85;;
20697;SDS011;10508;50.956;4.640;2024-02-16T11:35:37;12.35;;;5.70;;
20697;SDS011;10508;50.956;4.640;2024-02-16T11:38:06;13.70;;;6.15;;
20697;SDS011;10508;50.956;4.640;2024-02-16T11:40:32;22.95;;;6.50;;
20697;SDS011;10508;50.956;4.640;2024-02-16T11:43:00;15.55;;;5.82;;
20697;SDS011;10508;50.956;4.640;2024-02-16T11:45:26;13.73;;;5.95;;
20697;SDS011;10508;50.956;4.640;2024-02-16T11:48:02;11.25;;;5.70;;
20697;SDS011;10508;50.956;4.640;2024-02-16T11:50:31;11.68;;;6.00;;
20697;SDS011;10508;50.956;4.640;2024-02-16T11:52:57;12.15;;;5.70;;
20697;SDS011;10508;50.956;4.640;2024-02-16T11:55:23;10.07;;;6.20;;
20697;SDS011;10508;50.956;4.640;2024-02-16T11:57:50;9.20;;;5.82;;
20697;SDS011;10508;50.956;4.640;2024-02-16T12:00:16;12.85;;;6.30;;
20697;SDS011;10508;50.956;4.640;2024-02-16T12:02:42;14.13;;;5.88;;
20697;SDS011;10508;50.956;4.640;2024-02-16T12:05:17;17.15;;;5.97;;
20697;SDS011;10508;50.956;4.640;2024-02-16T12:07:43;10.32;;;5.68;;
20697;SDS011;10508;50.956;4.640;2024-02-16T12:10:11;13.75;;;5.90;;
20697;SDS011;10508;50.956;4.640;2024-02-16T12:12:37;16.30;;;5.90;;
20697;SDS011;10508;50.956;4.640;2024-02-16T12:15:04;14.73;;;5.50;;
20697;SDS011;10508;50.956;4.640;2024-02-16T12:17:30;17.08;;;5.57;;
20697;SDS011;10508;50.956;4.640;2024-02-16T12:19:56;9.23;;;5.50;;
20697;SDS011;10508;50.956;4.640;2024-02-16T12:22:22;10.80;;;5.13;;
20697;SDS011;10508;50.956;4.640;2024-02-16T12:24:49;11.43;;;5.10;;
20697;SDS011;10508;50.956;4.640;2024-02-16T12:27:16;8.02;;;5.28;;
20697;SDS011;10508;50.956;4.640;2024-02-16T12:29:42;10.13;;;5.07;;
20697;SDS011;10508;50.956;4.640;2024-02-16T12:32:07;10.40;;;5.05;;
20697;SDS011;10508;50.956;4.640;2024-02-16T12:34:36;10.10;;;5.47;;
20697;SDS011;10508;50.956;4.640;2024-02-16T12:37:05;11.57;;;4.95;;
20697;SDS011;10508;50.956;4.640;2024-02-16T12:39:36;9.45;;;4.93;;
20697;SDS011;10508;50.956;4.640;2024-02-16T12:42:02;7.13;;;4.78;;
20697;SDS011;10508;50.956;4.640;2024-02-16T12:44:29;8.32;;;5.15;;
20697;SDS011;10508;50.956;4.640;2024-02-16T12:46:55;7.15;;;5.10;;
20697;SDS011;10508;50.956;4.640;2024-02-16T12:49:21;9.93;;;5.07;;
20697;SDS011;10508;50.956;4.640;2024-02-16T12:51:50;7.70;;;4.97;;
20697;SDS011;10508;50.956;4.640;2024-02-16T12:54:17;9.48;;;4.80;;
20697;SDS011;10508;50.956;4.640;2024-02-16T12:56:47;8.43;;;4.60;;
20697;SDS011;10508;50.956;4.640;2024-02-16T12:59:14;8.90;;;5.00;;
20697;SDS011;10508;50.956;4.640;2024-02-16T13:01:40;8.65;;;5.38;;
20697;SDS011;10508;50.956;4.640;2024-02-16T13:04:07;11.40;;;5.72;;
20697;SDS011;10508;50.956;4.640;2024-02-16T13:06:34;12.27;;;6.28;;
20697;SDS011;10508;50.956;4.640;2024-02-16T13:08:59;7.82;;;4.65;;
20697;SDS011;10508;50.956;4.640;2024-02-16T13:11:25;9.82;;;5.35;;
20697;SDS011;10508;50.956;4.640;2024-02-16T13:13:51;10.25;;;5.07;;
20697;SDS011;10508;50.956;4.640;2024-02-16T13:16:17;8.32;;;5.47;;
20697;SDS011;10508;50.956;4.640;2024-02-16T13:18:43;9.15;;;5.07;;
20697;SDS011;10508;50.956;4.640;2024-02-16T13:21:09;8.82;;;5.78;;
20697;SDS011;10508;50.956;4.640;2024-02-16T13:23:35;12.45;;;5.85;;
20697;SDS011;10508;50.956;4.640;2024-02-16T13:26:01;12.80;;;6.55;;
20697;SDS011;10508;50.956;4.640;2024-02-16T13:28:27;11.90;;;6.60;;
20697;SDS011;10508;50.956;4.640;2024-02-16T13:30:52;12.77;;;7.30;;
20697;SDS011;10508;50.956;4.640;2024-02-16T13:33:18;14.18;;;7.32;;
20697;SDS011;10508;50.956;4.640;2024-02-16T13:35:44;12.50;;;6.35;;
20697;SDS011;10508;50.956;4.640;2024-02-16T13:38:10;13.07;;;7.20;;
20697;SDS011;10508;50.956;4.640;2024-02-16T13:40:35;14.00;;;7.65;;
20697;SDS011;10508;50.956;4.640;2024-02-16T13:43:01;17.58;;;12.07;;
20697;SDS011;10508;50.956;4.640;2024-02-16T13:45:29;14.48;;;7.55;;
20697;SDS011;10508;50.956;4.640;2024-02-16T13:48:12;19.52;;;10.00;;
20697;SDS011;10508;50.956;4.640;2024-02-16T13:50:38;19.13;;;10.45;;
20697;SDS011;10508;50.956;4.640;2024-02-16T13:53:04;15.65;;;9.43;;
20697;SDS011;10508;50.956;4.640;2024-02-16T13:55:30;18.00;;;10.77;;
20697;SDS011;10508;50.956;4.640;2024-02-16T13:57:55;19.35;;;10.55;;
20697;SDS011;10508;50.956;4.640;2024-02-16T14:00:21;17.75;;;10.27;;
20697;SDS011;10508;50.956;4.640;2024-02-16T14:02:47;17.88;;;10.93;;
20697;SDS011;10508;50.956;4.640;2024-02-16T14:05:13;16.88;;;9.98;;
20697;SDS011;10508;50.956;4.640;2024-02-16T14:07:39;19.48;;;10.77;;
20697;SDS011;10508;50.956;4.640;2024-02-16T14:10:04;16.40;;;9.48;;
20697;SDS011;10508;50.956;4.640;2024-02-16T14:12:31;19.65;;;10.38;;
20697;SDS011;10508;50.956;4.640;2024-02-16T14:14:57;16.63;;;8.77;;
20697;SDS011;10508;50.956;4.640;2024-02-16T14:17:42;15.52;;;8.93;;
20697;SDS011;10508;50.956;4.640;2024-02-16T14:20:08;16.23;;;8.80;;
20697;SDS011;10508;50.956;4.640;2024-02-16T14:22:34;15.20;;;8.50;;
20697;SDS011;10508;50.956;4.640;2024-02-16T14:25:00;15.73;;;9.35;;
20697;SDS011;10508;50.956;4.640;2024-02-16T14:27:26;12.25;;;7.78;;
20697;SDS011;10508;50.956;4.640;2024-02-16T14:29:52;16.63;;;8.98;;
20697;SDS011;10508;50.956;4.640;2024-02-16T14:32:17;15.25;;;8.35;;
20697;SDS011;10508;50.956;4.640;2024-02-16T14:34:45;15.55;;;7.50;;
20697;SDS011;10508;50.956;4.640;2024-02-16T14:37:11;12.07;;;6.70;;
20697;SDS011;10508;50.956;4.640;2024-02-16T14:39:36;11.73;;;7.25;;
20697;SDS011;10508;50.956;4.640;2024-02-16T14:42:02;9.23;;;5.95;;
20697;SDS011;10508;50.956;4.640;2024-02-16T14:44:28;7.53;;;4.72;;
20697;SDS011;10508;50.956;4.640;2024-02-16T14:46:54;7.95;;;4.15;;
20697;SDS011;10508;50.956;4.640;2024-02-16T14:49:20;8.27;;;4.22;;
20697;SDS011;10508;50.956;4.640;2024-02-16T14:51:51;6.55;;;4.90;;
20697;SDS011;10508;50.956;4.640;2024-02-16T14:54:18;6.53;;;4.45;;
20697;SDS011;10508;50.956;4.640;2024-02-16T14:56:44;5.63;;;3.97;;
20697;SDS011;10508;50.956;4.640;2024-02-16T14:59:09;4.80;;;3.58;;
20697;SDS011;10508;50.956;4.640;2024-02-16T15:01:36;7.20;;;3.95;;
20697;SDS011;10508;50.956;4.640;2024-02-16T15:04:05;10.07;;;4.65;;
20697;SDS011;10508;50.956;4.640;2024-02-16T15:06:31;5.60;;;3.88;;
20697;SDS011;10508;50.956;4.640;2024-02-16T15:08:58;6.65;;;3.90;;
20697;SDS011;10508;50.956;4.640;2024-02-16T15:11:24;7.75;;;4.18;;
20697;SDS011;10508;50.956;4.640;2024-02-16T15:13:50;7.25;;;4.35;;
20697;SDS011;10508;50.956;4.640;2024-02-16T15:16:17;7.15;;;4.65;;
20697;SDS011;10508;50.956;4.640;2024-02-16T15:18:43;5.65;;;4.47;;
20697;SDS011;10508;50.956;4.640;2024-02-16T15:21:09;6.20;;;4.50;;
20697;SDS011;10508;50.956;4.640;2024-02-16T15:23:34;6.22;;;4.68;;
20697;SDS011;10508;50.956;4.640;2024-02-16T15:26:00;11.25;;;5.45;;
20697;SDS011;10508;50.956;4.640;2024-02-16T15:28:28;8.63;;;5.60;;
20697;SDS011;10508;50.956;4.640;2024-02-16T15:30:55;9.95;;;6.60;;
20697;SDS011;10508;50.956;4.640;2024-02-16T15:33:21;9.02;;;6.40;;
20697;SDS011;10508;50.956;4.640;2024-02-16T15:35:46;14.52;;;9.57;;